Meloria — IBXK — position and weather

sailwx.info

Track history (hours):
 
Tides and Currents Weather Stations Pressure Air Temp Water Temp Dewpoint Dewpoint Depression Visibility Wind Speed Wind Dir Waves Ship Positions

Meloria

Last reported at 2017-Mar-28 11:32 UTC. Time now 2017-Mar-28 12:01 UTC.
Position N 38°13' E 015°16'.

Length 176 m; draft 7.2 m.

Type: Tanker. MMSI: 247171100.

Date/timePositionNaut miles runAvg speedWind from/ knotsBaromVisibWave heightAir tempDewpointWater temp
2017-Mar-28 11:32N 38°13' E 015°16'0 0.0
2017-Mar-28 10:32N 38°13' E 015°16'0 0.0
2017-Mar-28 09:32N 38°13' E 015°16'0 0.0
2017-Mar-28 08:31N 38°13' E 015°16'0 0.0
2017-Mar-28 07:31N 38°13' E 015°16'0 0.0
2017-Mar-28 06:31N 38°13' E 015°16'0 0.0
2017-Mar-28 05:31N 38°13' E 015°16'0 0.0
2017-Mar-28 04:31N 38°13' E 015°16'0 0.0
2017-Mar-28 03:31N 38°13' E 015°16'0 0.0
2017-Mar-28 02:31N 38°13' E 015°16'0 0.0
2017-Mar-28 01:31N 38°13' E 015°16'0 0.0
2017-Mar-28 00:31N 38°13' E 015°16'0 0.0
2017-Mar-27 23:31N 38°13' E 015°16'0 0.0
2017-Mar-27 22:31N 38°13' E 015°16'0 0.0
2017-Mar-27 21:31N 38°13' E 015°16'0 0.0
2017-Mar-27 20:31N 38°13' E 015°16'0 0.0
2017-Mar-27 19:31N 38°13' E 015°16'0 0.0
2017-Mar-27 18:31N 38°13' E 015°16'0 0.0
2017-Mar-27 17:31N 38°13' E 015°16'0 0.0
2017-Mar-27 16:31N 38°13' E 015°16'0 0.0
2017-Mar-27 15:31N 38°13' E 015°16'0 0.0
2017-Mar-27 14:31N 38°13' E 015°16'0 0.0
2017-Mar-27 13:31N 38°13' E 015°16'0 0.0
2017-Mar-27 12:31N 38°13' E 015°16'0 0.0
2017-Mar-27 11:31N 38°13' E 015°16'0 0.0
2017-Mar-27 10:31N 38°13' E 015°16'0 0.0
2017-Mar-27 09:31N 38°13' E 015°16'0 0.0
2017-Mar-27 08:31N 38°13' E 015°16'0 0.0
2017-Mar-27 07:33N 38°13' E 015°16'1 0.9
2017-Mar-27 06:29N 38°13' E 015°17'0 0.1
2017-Mar-27 05:33N 38°13' E 015°17'9 8.9
2017-Mar-27 04:33N 38°22' E 015°19'1313.3
2017-Mar-27 03:34N 38°35' E 015°22'1211.9
2017-Mar-27 02:33N 38°46' E 015°29'5 5.5
2017-Mar-27 01:34N 38°47' E 015°22'1312.6
2017-Mar-27 00:33N 38°58' E 015°16'11812.5
2017-Mar-26 15:08N 40°48' E 014°20'  
2017-Mar-23 09:08N 38°42' E 015°11'813.0
2017-Mar-23 08:33N 38°35' E 015°12'1313.2
2017-Mar-23 07:33N 38°22' E 015°16'9 8.6
2017-Mar-23 06:31N 38°13' E 015°19'2 1.9
2017-Mar-23 05:28N 38°13' E 015°16'0 0.0
2017-Mar-23 04:28N 38°13' E 015°16'0 0.0
2017-Mar-23 03:28N 38°13' E 015°16'0 0.0
2017-Mar-23 02:28N 38°13' E 015°16'0 0.0
2017-Mar-23 01:28N 38°13' E 015°16'0 0.0
2017-Mar-23 00:28N 38°13' E 015°16'0 0.0
2017-Mar-22 23:28N 38°13' E 015°16'0 0.0
2017-Mar-22 22:28N 38°13' E 015°16'0 0.0
2017-Mar-22 21:28N 38°13' E 015°16'0 0.0
2017-Mar-22 20:28N 38°13' E 015°16'0 0.0
2017-Mar-22 19:28N 38°13' E 015°16'0 0.0
2017-Mar-22 18:34N 38°13' E 015°16'0 0.0
2017-Mar-22 17:33N 38°13' E 015°16'0 0.0
2017-Mar-22 16:33N 38°13' E 015°16'0 0.0
2017-Mar-22 15:33N 38°13' E 015°16'0 0.0
2017-Mar-22 14:33N 38°13' E 015°16'0 0.0
2017-Mar-22 13:33N 38°13' E 015°16'0 0.0
2017-Mar-22 12:33N 38°13' E 015°16'0 0.0
2017-Mar-22 11:33N 38°13' E 015°16'0 0.0
2017-Mar-22 10:33N 38°13' E 015°16'0 0.0
2017-Mar-22 09:27N 38°13' E 015°16'0 0.0
2017-Mar-22 08:33N 38°13' E 015°16'0 0.0
2017-Mar-22 07:33N 38°13' E 015°16'0 0.0
2017-Mar-22 06:33N 38°13' E 015°16'0 0.0
2017-Mar-22 05:33N 38°13' E 015°16'0 0.0
2017-Mar-22 04:33N 38°13' E 015°16'0 0.0
2017-Mar-22 03:33N 38°13' E 015°16'0 0.0
2017-Mar-22 02:33N 38°13' E 015°16'0 0.0
2017-Mar-22 01:21N 38°13' E 015°16'0 0.0
2017-Mar-22 00:27N 38°13' E 015°16'0 0.0
2017-Mar-21 23:33N 38°13' E 015°16'0 0.0
2017-Mar-21 22:33N 38°13' E 015°16'0 0.0
2017-Mar-21 21:33N 38°13' E 015°16'0 0.0
2017-Mar-21 20:33N 38°13' E 015°16'0 0.1
2017-Mar-21 19:33N 38°13' E 015°16'1 0.6
2017-Mar-21 18:30N 38°13' E 015°17'0 0.0
2017-Mar-21 17:30N 38°13' E 015°17'0 0.0
2017-Mar-21 16:30N 38°13' E 015°17'0 0.0
2017-Mar-21 15:30N 38°13' E 015°17'0 0.0
2017-Mar-21 14:30N 38°13' E 015°17'0 0.0
2017-Mar-21 13:30N 38°13' E 015°17'0 0.0
2017-Mar-21 12:30N 38°13' E 015°17'0 0.0
2017-Mar-21 11:30N 38°13' E 015°17'0 0.0
2017-Mar-21 10:30N 38°13' E 015°17'0 0.0
2017-Mar-21 09:30N 38°13' E 015°17'0 0.0
2017-Mar-21 08:30N 38°13' E 015°17'0 0.1
2017-Mar-21 07:30N 38°13' E 015°17'0 0.1
2017-Mar-21 06:30N 38°13' E 015°17'0 0.1
2017-Mar-21 05:30N 38°13' E 015°17'0 0.1
2017-Mar-21 04:30N 38°13' E 015°17'0 0.0
2017-Mar-21 03:30N 38°13' E 015°17'0 0.0
2017-Mar-21 02:29N 38°13' E 015°17'0 0.0
2017-Mar-21 01:23N 38°13' E 015°17'0 0.0
2017-Mar-21 00:29N 38°13' E 015°17'0 0.0
2017-Mar-20 23:29N 38°13' E 015°17'0 0.0
2017-Mar-20 22:29N 38°13' E 015°17'3 2.8
2017-Mar-20 21:33N 38°16' E 015°17'1211.8
2017-Mar-20 20:33N 38°27' E 015°14'1414.4
2017-Mar-20 19:33N 38°41' E 015°11'1414.0
2017-Mar-20 18:33N 38°54' E 015°03'112 2.2
2017-Mar-18 15:15N 40°35' E 013°58'  
Track history (hours):
 
Tides and Currents Weather Stations Pressure Air Temp Water Temp Dewpoint Dewpoint Depression Visibility Wind Speed Wind Dir Waves Ship Positions

Meloria

Last reported at 2017-Mar-28 11:32 UTC. Time now 2017-Mar-28 12:01 UTC.
Position N 38°13' E 015°16'.

Length 176 m; draft 7.2 m.

Type: Tanker. MMSI: 247171100.

Date/timePositionNaut miles runAvg speedWind from/ knotsBaromVisibWave heightAir tempDewpointWater temp
2017-Mar-28 11:32N 38°13' E 015°16'0 0.0
2017-Mar-28 10:32N 38°13' E 015°16'0 0.0
2017-Mar-28 09:32N 38°13' E 015°16'0 0.0
2017-Mar-28 08:31N 38°13' E 015°16'0 0.0
2017-Mar-28 07:31N 38°13' E 015°16'0 0.0
2017-Mar-28 06:31N 38°13' E 015°16'0 0.0
2017-Mar-28 05:31N 38°13' E 015°16'0 0.0
2017-Mar-28 04:31N 38°13' E 015°16'0 0.0
2017-Mar-28 03:31N 38°13' E 015°16'0 0.0
2017-Mar-28 02:31N 38°13' E 015°16'0 0.0
2017-Mar-28 01:31N 38°13' E 015°16'0 0.0
2017-Mar-28 00:31N 38°13' E 015°16'0 0.0
2017-Mar-27 23:31N 38°13' E 015°16'0 0.0
2017-Mar-27 22:31N 38°13' E 015°16'0 0.0
2017-Mar-27 21:31N 38°13' E 015°16'0 0.0
2017-Mar-27 20:31N 38°13' E 015°16'0 0.0
2017-Mar-27 19:31N 38°13' E 015°16'0 0.0
2017-Mar-27 18:31N 38°13' E 015°16'0 0.0
2017-Mar-27 17:31N 38°13' E 015°16'0 0.0
2017-Mar-27 16:31N 38°13' E 015°16'0 0.0
2017-Mar-27 15:31N 38°13' E 015°16'0 0.0
2017-Mar-27 14:31N 38°13' E 015°16'0 0.0
2017-Mar-27 13:31N 38°13' E 015°16'0 0.0
2017-Mar-27 12:31N 38°13' E 015°16'0 0.0
2017-Mar-27 11:31N 38°13' E 015°16'0 0.0
2017-Mar-27 10:31N 38°13' E 015°16'0 0.0
2017-Mar-27 09:31N 38°13' E 015°16'0 0.0
2017-Mar-27 08:31N 38°13' E 015°16'0 0.0
2017-Mar-27 07:33N 38°13' E 015°16'1 0.9
2017-Mar-27 06:29N 38°13' E 015°17'0 0.1
2017-Mar-27 05:33N 38°13' E 015°17'9 8.9
2017-Mar-27 04:33N 38°22' E 015°19'1313.3
2017-Mar-27 03:34N 38°35' E 015°22'1211.9
2017-Mar-27 02:33N 38°46' E 015°29'5 5.5
2017-Mar-27 01:34N 38°47' E 015°22'1312.6
2017-Mar-27 00:33N 38°58' E 015°16'11812.5
2017-Mar-26 15:08N 40°48' E 014°20'  
2017-Mar-23 09:08N 38°42' E 015°11'813.0
2017-Mar-23 08:33N 38°35' E 015°12'1313.2
2017-Mar-23 07:33N 38°22' E 015°16'9 8.6
2017-Mar-23 06:31N 38°13' E 015°19'2 1.9
2017-Mar-23 05:28N 38°13' E 015°16'0 0.0
2017-Mar-23 04:28N 38°13' E 015°16'0 0.0
2017-Mar-23 03:28N 38°13' E 015°16'0 0.0
2017-Mar-23 02:28N 38°13' E 015°16'0 0.0
2017-Mar-23 01:28N 38°13' E 015°16'0 0.0
2017-Mar-23 00:28N 38°13' E 015°16'0 0.0
2017-Mar-22 23:28N 38°13' E 015°16'0 0.0
2017-Mar-22 22:28N 38°13' E 015°16'0 0.0
2017-Mar-22 21:28N 38°13' E 015°16'0 0.0
2017-Mar-22 20:28N 38°13' E 015°16'0 0.0
2017-Mar-22 19:28N 38°13' E 015°16'0 0.0
2017-Mar-22 18:34N 38°13' E 015°16'0 0.0
2017-Mar-22 17:33N 38°13' E 015°16'0 0.0
2017-Mar-22 16:33N 38°13' E 015°16'0 0.0
2017-Mar-22 15:33N 38°13' E 015°16'0 0.0
2017-Mar-22 14:33N 38°13' E 015°16'0 0.0
2017-Mar-22 13:33N 38°13' E 015°16'0 0.0
2017-Mar-22 12:33N 38°13' E 015°16'0 0.0
2017-Mar-22 11:33N 38°13' E 015°16'0 0.0
2017-Mar-22 10:33N 38°13' E 015°16'0 0.0
2017-Mar-22 09:27N 38°13' E 015°16'0 0.0
2017-Mar-22 08:33N 38°13' E 015°16'0 0.0
2017-Mar-22 07:33N 38°13' E 015°16'0 0.0
2017-Mar-22 06:33N 38°13' E 015°16'0 0.0
2017-Mar-22 05:33N 38°13' E 015°16'0 0.0
2017-Mar-22 04:33N 38°13' E 015°16'0 0.0
2017-Mar-22 03:33N 38°13' E 015°16'0 0.0
2017-Mar-22 02:33N 38°13' E 015°16'0 0.0
2017-Mar-22 01:21N 38°13' E 015°16'0 0.0
2017-Mar-22 00:27N 38°13' E 015°16'0 0.0
2017-Mar-21 23:33N 38°13' E 015°16'0 0.0
2017-Mar-21 22:33N 38°13' E 015°16'0 0.0
2017-Mar-21 21:33N 38°13' E 015°16'0 0.0
2017-Mar-21 20:33N 38°13' E 015°16'0 0.1
2017-Mar-21 19:33N 38°13' E 015°16'1 0.6
2017-Mar-21 18:30N 38°13' E 015°17'0 0.0
2017-Mar-21 17:30N 38°13' E 015°17'0 0.0
2017-Mar-21 16:30N 38°13' E 015°17'0 0.0
2017-Mar-21 15:30N 38°13' E 015°17'0 0.0
2017-Mar-21 14:30N 38°13' E 015°17'0 0.0
2017-Mar-21 13:30N 38°13' E 015°17'0 0.0
2017-Mar-21 12:30N 38°13' E 015°17'0 0.0
2017-Mar-21 11:30N 38°13' E 015°17'0 0.0
2017-Mar-21 10:30N 38°13' E 015°17'0 0.0
2017-Mar-21 09:30N 38°13' E 015°17'0 0.0
2017-Mar-21 08:30N 38°13' E 015°17'0 0.1
2017-Mar-21 07:30N 38°13' E 015°17'0 0.1
2017-Mar-21 06:30N 38°13' E 015°17'0 0.1
2017-Mar-21 05:30N 38°13' E 015°17'0 0.1
2017-Mar-21 04:30N 38°13' E 015°17'0 0.0
2017-Mar-21 03:30N 38°13' E 015°17'0 0.0
2017-Mar-21 02:29N 38°13' E 015°17'0 0.0
2017-Mar-21 01:23N 38°13' E 015°17'0 0.0
2017-Mar-21 00:29N 38°13' E 015°17'0 0.0
2017-Mar-20 23:29N 38°13' E 015°17'0 0.0
2017-Mar-20 22:29N 38°13' E 015°17'3 2.8
2017-Mar-20 21:33N 38°16' E 015°17'1211.8
2017-Mar-20 20:33N 38°27' E 015°14'1414.4
2017-Mar-20 19:33N 38°41' E 015°11'1414.0
2017-Mar-20 18:33N 38°54' E 015°03'112 2.2
2017-Mar-18 15:15N 40°35' E 013°58'  

Dump ship's entire track history